Munising, Michigan
Current Conditions -  °F | °C
As of 4:39 AM on Friday 31 Oct 2014 (Local Time) from KSAW Reporting Station
NA  
Wind Chill: 18°   Ceiling: NA
Heat Index: 32°   Visibility: NA
Dew Point: 27°   Wind: 28mph
Humidity: 80%   Direction: 360°N
Pressure: 30.1"   Gusts: 40mph
Location:  46.41°N, 86.65°W
Report Text: KSAW 310839Z AUTO 36024G35KT 00/M03 A3010 RMK AO2
Loading
Personal Weather Stations






























Interactive Weather Map New forecast layout! Learn more

10-Day Weather Forecast

Advertisements
Track Severe Weather on mobile